createdAt,value
2019-03-25T00:03:18.386Z,9.52
2019-03-25T00:08:21.022Z,9.44
2019-03-25T00:13:23.642Z,9.39
2019-03-25T00:18:26.289Z,9.31
2019-03-25T00:23:29.014Z,9.24
2019-03-25T00:28:31.615Z,9.21
2019-03-25T00:33:34.237Z,9.16
2019-03-25T00:38:36.869Z,9.14
2019-03-25T00:43:39.466Z,9.11
2019-03-25T00:48:44.217Z,9.04
2019-03-25T00:53:46.934Z,9.00
2019-03-25T00:58:49.624Z,8.91
2019-03-25T01:03:52.372Z,8.92
2019-03-25T01:08:57.974Z,8.90
2019-03-25T01:14:00.606Z,8.96
2019-03-25T01:19:03.264Z,9.00
2019-03-25T01:24:05.882Z,8.99
2019-03-25T01:29:08.567Z,9.12
2019-03-25T01:34:11.207Z,9.14
2019-03-25T01:39:13.864Z,9.21
2019-03-25T01:44:16.509Z,9.29
2019-03-25T01:49:19.154Z,9.38
2019-03-25T01:54:21.748Z,9.31
2019-03-25T01:59:24.661Z,9.35
2019-03-25T02:04:27.135Z,9.36
2019-03-25T02:09:29.749Z,9.29
2019-03-25T02:14:34.748Z,9.22
2019-03-25T02:19:37.490Z,9.26
2019-03-25T02:24:40.081Z,9.14
2019-03-25T02:29:42.656Z,9.04
2019-03-25T02:34:45.312Z,8.74
2019-03-25T02:39:48.153Z,8.75
2019-03-25T02:44:50.793Z,8.57
2019-03-25T02:49:53.392Z,8.45
2019-03-25T02:55:02.280Z,8.43
2019-03-25T03:00:07.589Z,8.47
2019-03-25T03:05:10.497Z,8.51
2019-03-25T03:10:13.156Z,8.38
2019-03-25T03:15:15.754Z,8.45
2019-03-25T03:20:18.509Z,8.39
2019-03-25T03:25:21.104Z,8.42
2019-03-25T03:30:23.759Z,8.48
2019-03-25T03:35:26.533Z,8.65
2019-03-25T03:40:29.139Z,8.65
2019-03-25T03:45:31.737Z,8.55
2019-03-25T03:50:34.553Z,8.45
2019-03-25T03:55:38.772Z,8.29
2019-03-25T04:00:41.413Z,8.22
2019-03-25T04:05:44.047Z,8.11
2019-03-25T04:10:46.685Z,8.09
2019-03-25T04:15:49.298Z,8.21
2019-03-25T04:20:51.943Z,8.23
2019-03-25T04:25:54.522Z,8.19
2019-03-25T04:30:57.151Z,8.19
2019-03-25T04:35:59.827Z,8.21
2019-03-25T04:41:05.412Z,8.25
2019-03-25T04:46:08.009Z,8.21
2019-03-25T04:51:11.891Z,8.08
2019-03-25T04:56:14.470Z,8.04
2019-03-25T05:01:17.092Z,8.09
2019-03-25T05:06:22.002Z,8.00
2019-03-25T05:11:30.550Z,8.03
2019-03-25T05:16:29.164Z,7.99
2019-03-25T05:21:31.743Z,8.04
2019-03-25T05:26:34.474Z,7.99
2019-03-25T05:31:37.100Z,8.10
2019-03-25T05:36:41.857Z,8.04
2019-03-25T05:41:44.701Z,8.00
2019-03-25T05:46:47.311Z,8.02
2019-03-25T05:51:49.917Z,8.17
2019-03-25T05:57:02.055Z,8.30
2019-03-25T06:01:57.091Z,8.38
2019-03-25T06:06:59.695Z,8.35
2019-03-25T06:12:04.205Z,8.36
2019-03-25T06:17:08.412Z,8.31
2019-03-25T06:22:11.081Z,8.31
2019-03-25T06:27:14.647Z,8.40
2019-03-25T06:32:17.610Z,8.48
2019-03-25T06:37:20.329Z,8.49
2019-03-25T06:42:23.049Z,8.52
2019-03-25T06:47:25.752Z,8.51
2019-03-25T06:52:28.381Z,8.54
2019-03-25T06:57:31.045Z,8.52
2019-03-25T07:02:33.744Z,8.61
2019-03-25T07:07:36.303Z,8.66
2019-03-25T07:12:39.430Z,8.68
2019-03-25T07:17:42.084Z,8.69
2019-03-25T07:22:44.781Z,8.83
2019-03-25T07:27:48.711Z,8.77
2019-03-25T07:32:51.290Z,8.80
2019-03-25T07:37:54.055Z,8.89
2019-03-25T07:42:56.741Z,8.97
2019-03-25T07:47:59.397Z,8.91
2019-03-25T07:53:02.103Z,8.92
2019-03-25T07:58:04.808Z,9.05
2019-03-25T08:03:07.499Z,9.03
2019-03-25T08:08:10.236Z,9.33
2019-03-25T08:13:12.938Z,9.51
2019-03-25T08:18:15.660Z,9.87
2019-03-25T08:23:18.293Z,10.50
2019-03-25T08:28:20.873Z,11.08
2019-03-25T08:33:23.515Z,11.38
2019-03-25T08:38:27.354Z,11.85
2019-03-25T08:43:30.040Z,12.25
2019-03-25T08:48:32.718Z,12.56
2019-03-25T08:53:35.400Z,12.54
2019-03-25T08:58:38.230Z,12.59
2019-03-25T09:03:40.896Z,12.76
2019-03-25T09:08:44.733Z,12.85
2019-03-25T09:13:47.220Z,12.66
2019-03-25T09:18:49.940Z,12.49
2019-03-25T09:23:52.636Z,12.47
2019-03-25T09:28:55.234Z,12.64
2019-03-25T09:33:57.888Z,13.14
2019-03-25T09:39:00.618Z,13.17
2019-03-25T09:44:03.646Z,13.23
2019-03-25T09:49:06.324Z,13.08
2019-03-25T09:54:10.518Z,12.96
2019-03-25T09:59:15.083Z,12.84
2019-03-25T10:04:20.039Z,13.04
2019-03-25T10:09:23.815Z,13.01
2019-03-25T10:14:26.503Z,13.51
2019-03-25T10:19:29.180Z,13.59
2019-03-25T10:24:32.947Z,13.51
2019-03-25T10:29:35.582Z,13.95
2019-03-25T10:34:38.293Z,14.50
2019-03-25T10:39:40.876Z,14.12
2019-03-25T10:44:43.461Z,13.81
2019-03-25T10:49:46.011Z,13.70
2019-03-25T10:54:48.920Z,13.63
2019-03-25T10:59:51.670Z,13.47
2019-03-25T11:04:54.261Z,13.66
2019-03-25T11:09:56.940Z,13.57
2019-03-25T11:15:02.096Z,13.62
2019-03-25T11:20:04.899Z,13.60
2019-03-25T11:25:08.702Z,13.35
2019-03-25T11:30:13.439Z,13.37
2019-03-25T11:35:16.353Z,13.29
2019-03-25T11:40:19.118Z,13.48
2019-03-25T11:45:21.792Z,13.57
2019-03-25T11:50:24.424Z,13.60
2019-03-25T11:55:27.055Z,13.61
2019-03-25T12:00:29.640Z,13.55
2019-03-25T12:05:32.275Z,13.31
2019-03-25T12:10:34.888Z,13.25
2019-03-25T12:15:37.557Z,13.14
2019-03-25T12:20:40.271Z,12.96
2019-03-25T12:25:42.894Z,13.06
2019-03-25T12:30:45.719Z,12.95
2019-03-25T12:35:50.466Z,12.96
2019-03-25T12:40:53.228Z,13.07
2019-03-25T12:45:55.825Z,13.05
2019-03-25T12:50:58.436Z,12.80
2019-03-25T12:56:01.107Z,12.29
2019-03-25T13:01:06.026Z,11.71
2019-03-25T13:06:08.653Z,11.34
2019-03-25T13:11:11.268Z,10.98
2019-03-25T13:16:13.881Z,10.95
2019-03-25T13:21:16.553Z,10.84
2019-03-25T13:26:19.144Z,10.87
2019-03-25T13:31:21.830Z,10.75
2019-03-25T13:36:24.436Z,10.80
2019-03-25T13:41:27.182Z,10.71
2019-03-25T13:46:29.954Z,10.81
2019-03-25T13:51:32.667Z,11.02
2019-03-25T13:56:35.315Z,11.29
2019-03-25T14:01:37.932Z,11.61
2019-03-25T14:06:40.548Z,11.77
2019-03-25T14:11:43.190Z,12.17
2019-03-25T14:16:45.846Z,12.38
2019-03-25T14:21:48.436Z,12.36
2019-03-25T14:26:51.121Z,12.31
2019-03-25T14:31:53.704Z,12.11
2019-03-25T14:36:56.316Z,11.88
2019-03-25T14:41:59.158Z,11.57
2019-03-25T14:47:01.799Z,11.37
2019-03-25T14:52:04.543Z,11.22
2019-03-25T14:57:07.153Z,11.24
2019-03-25T15:02:09.798Z,11.32
2019-03-25T15:07:12.355Z,11.27
2019-03-25T15:12:14.955Z,11.30
2019-03-25T15:17:17.867Z,11.17
2019-03-25T15:22:20.694Z,11.08
2019-03-25T15:27:23.289Z,11.07
2019-03-25T15:32:25.896Z,11.14
2019-03-25T15:37:28.511Z,11.31
2019-03-25T15:42:31.114Z,11.33
2019-03-25T15:47:33.745Z,11.13
2019-03-25T15:52:36.484Z,10.69
2019-03-25T15:57:39.877Z,10.34
2019-03-25T16:02:42.860Z,10.05
2019-03-25T16:07:45.757Z,9.91
2019-03-25T16:12:48.451Z,9.96
2019-03-25T16:17:51.064Z,9.98
2019-03-25T16:22:53.734Z,9.97
2019-03-25T16:27:56.330Z,10.02
2019-03-25T16:32:58.992Z,9.93
2019-03-25T16:38:01.602Z,9.86
2019-03-25T16:43:04.266Z,9.78
2019-03-25T16:48:06.863Z,9.74
2019-03-25T16:53:10.523Z,9.74
2019-03-25T16:58:13.134Z,9.79
2019-03-25T17:03:15.797Z,9.88
2019-03-25T17:08:18.444Z,9.91
2019-03-25T17:13:21.051Z,10.00
2019-03-25T17:18:24.743Z,9.91
2019-03-25T17:23:27.440Z,9.85
2019-03-25T17:28:30.104Z,9.83
2019-03-25T17:33:32.737Z,9.76
2019-03-25T17:38:35.350Z,9.71
2019-03-25T17:43:37.958Z,9.65
2019-03-25T17:48:40.597Z,9.56
2019-03-25T17:53:43.213Z,9.52
2019-03-25T17:58:46.013Z,9.44
2019-03-25T18:03:48.704Z,9.38
2019-03-25T18:08:51.461Z,9.42
2019-03-25T18:14:02.995Z,9.45
2019-03-25T18:19:05.880Z,9.50
2019-03-25T18:24:08.619Z,9.53
2019-03-25T18:29:11.208Z,9.59
2019-03-25T18:34:13.889Z,9.71
2019-03-25T18:39:16.551Z,9.73
2019-03-25T18:44:19.386Z,9.73
2019-03-25T18:49:22.050Z,9.67
2019-03-25T18:54:24.790Z,9.56
2019-03-25T18:59:27.496Z,9.47
2019-03-25T19:04:30.194Z,9.37
2019-03-25T19:09:32.996Z,9.26
2019-03-25T19:14:35.653Z,9.28
2019-03-25T19:19:39.395Z,9.36
2019-03-25T19:24:42.058Z,9.41
2019-03-25T19:29:44.744Z,9.33
2019-03-25T19:34:47.520Z,9.22
2019-03-25T19:39:50.337Z,9.17
2019-03-25T19:44:52.906Z,9.13
2019-03-25T19:49:55.653Z,9.19
2019-03-25T19:54:58.292Z,9.23
2019-03-25T20:00:03.623Z,9.26
2019-03-25T20:05:07.799Z,9.29
2019-03-25T20:10:26.325Z,9.31
2019-03-25T20:15:35.763Z,9.37
2019-03-25T20:20:35.510Z,9.32
2019-03-25T20:25:38.823Z,9.38
2019-03-25T20:30:41.629Z,9.42
2019-03-25T20:35:46.371Z,9.44
2019-03-25T20:40:48.934Z,9.47
2019-03-25T20:45:51.852Z,9.47
2019-03-25T20:50:55.612Z,9.44
2019-03-25T20:55:58.433Z,9.41
2019-03-25T21:01:01.431Z,9.43
2019-03-25T21:06:04.124Z,9.41
2019-03-25T21:11:06.815Z,9.42
2019-03-25T21:16:09.472Z,9.46
2019-03-25T21:21:12.155Z,9.45
2019-03-25T21:26:16.409Z,9.47
2019-03-25T21:31:19.113Z,9.49
2019-03-25T21:36:21.888Z,9.47
2019-03-25T21:41:24.583Z,9.48
2019-03-25T21:46:28.561Z,9.52
2019-03-25T21:51:31.148Z,9.57
2019-03-25T21:56:33.873Z,9.58
2019-03-25T22:01:36.544Z,9.64
2019-03-25T22:06:39.192Z,9.68
2019-03-25T22:11:41.892Z,9.68
2019-03-25T22:16:44.653Z,9.66
2019-03-25T22:21:47.282Z,9.72
2019-03-25T22:26:49.843Z,9.58
2019-03-25T22:31:52.579Z,9.57
2019-03-25T22:36:55.241Z,9.58
2019-03-25T22:41:57.854Z,9.63
2019-03-25T22:47:01.714Z,9.64
2019-03-25T22:52:05.570Z,9.61
2019-03-25T22:57:09.134Z,9.63
2019-03-25T23:02:11.853Z,9.70
2019-03-25T23:07:14.574Z,9.73
2019-03-25T23:12:17.444Z,9.81
2019-03-25T23:17:20.058Z,9.81
2019-03-25T23:22:22.724Z,9.85
2019-03-25T23:27:27.295Z,9.79
2019-03-25T23:32:31.117Z,9.73
2019-03-25T23:37:33.764Z,9.71
2019-03-25T23:42:36.376Z,9.70
2019-03-25T23:47:39.415Z,9.59
2019-03-25T23:52:42.163Z,9.54
2019-03-25T23:57:44.888Z,9.49
